createdAt,value
2019-02-25T00:00:42.996Z,6.20
2019-02-25T00:01:43.000Z,6.50
2019-02-25T00:02:42.979Z,6.60
2019-02-25T00:03:42.966Z,6.60
2019-02-25T00:04:42.960Z,5.90
2019-02-25T00:05:42.947Z,6.10
2019-02-25T00:06:42.947Z,6.00
2019-02-25T00:07:42.933Z,5.90
2019-02-25T00:08:42.913Z,6.60
2019-02-25T00:09:42.902Z,6.40
2019-02-25T00:10:42.893Z,5.80
2019-02-25T00:11:42.886Z,6.60
2019-02-25T00:12:42.872Z,5.80
2019-02-25T00:13:42.881Z,6.20
2019-02-25T00:14:42.849Z,6.10
2019-02-25T00:15:42.836Z,6.30
2019-02-25T00:16:42.825Z,6.30
2019-02-25T00:17:42.824Z,6.30
2019-02-25T00:18:42.810Z,6.10
2019-02-25T00:19:42.799Z,6.10
2019-02-25T00:20:42.786Z,6.50
2019-02-25T00:21:42.779Z,6.30
2019-02-25T00:22:42.763Z,5.60
2019-02-25T00:23:42.746Z,6.10
2019-02-25T00:24:42.740Z,6.00
2019-02-25T00:25:42.734Z,6.10
2019-02-25T00:26:42.719Z,6.00
2019-02-25T00:27:42.704Z,6.50
2019-02-25T00:28:42.695Z,6.30
2019-02-25T00:29:42.683Z,6.20
2019-02-25T00:30:42.689Z,6.40
2019-02-25T00:31:42.666Z,6.00
2019-02-25T00:32:42.653Z,6.50
2019-02-25T00:33:42.640Z,5.40
2019-02-25T00:34:42.631Z,7.00
2019-02-25T00:35:42.627Z,6.40
2019-02-25T00:36:42.618Z,6.10
2019-02-25T00:37:42.605Z,6.20
2019-02-25T00:38:42.583Z,5.60
2019-02-25T00:39:42.577Z,6.30
2019-02-25T00:40:42.565Z,6.60
2019-02-25T00:41:42.554Z,6.10
2019-02-25T00:42:42.542Z,6.30
2019-02-25T00:43:42.533Z,6.00
2019-02-25T00:44:42.519Z,6.00
2019-02-25T00:45:42.508Z,6.30
2019-02-25T00:46:42.520Z,6.20
2019-02-25T00:47:42.481Z,5.90
2019-02-25T00:48:42.475Z,6.50
2019-02-25T00:49:42.462Z,6.40
2019-02-25T00:50:42.457Z,6.20
2019-02-25T00:51:42.443Z,6.40
2019-02-25T00:52:42.451Z,5.90
2019-02-25T00:53:42.425Z,6.00
2019-02-25T00:54:42.412Z,6.10
2019-02-25T00:55:42.395Z,5.70
2019-02-25T00:56:42.388Z,5.70
2019-02-25T00:57:42.385Z,6.90
2019-02-25T00:58:42.382Z,6.20
2019-02-25T00:59:42.350Z,6.00
2019-02-25T01:00:42.345Z,6.40
2019-02-25T01:01:42.350Z,5.90
2019-02-25T01:02:42.324Z,6.10
2019-02-25T01:03:42.329Z,6.80
2019-02-25T01:04:42.303Z,5.90
2019-02-25T01:05:42.290Z,6.30
2019-02-25T01:06:42.280Z,6.20
2019-02-25T01:07:42.285Z,6.20
2019-02-25T01:08:42.259Z,6.50
2019-02-25T01:09:42.248Z,6.60
2019-02-25T01:10:42.232Z,6.20
2019-02-25T01:11:42.230Z,6.90
2019-02-25T01:12:42.212Z,6.60
2019-02-25T01:13:42.194Z,5.90
2019-02-25T01:14:42.199Z,6.50
2019-02-25T01:15:42.192Z,6.50
2019-02-25T01:16:42.172Z,5.90
2019-02-25T01:17:42.160Z,5.90
2019-02-25T01:18:42.146Z,6.00
2019-02-25T01:19:42.133Z,6.60
2019-02-25T01:20:42.124Z,6.60
2019-02-25T01:21:42.117Z,5.90
2019-02-25T01:22:42.104Z,5.80
2019-02-25T01:23:42.113Z,6.00
2019-02-25T01:24:42.085Z,6.60
2019-02-25T01:25:42.074Z,6.30
2019-02-25T01:26:42.053Z,6.50
2019-02-25T01:27:42.064Z,6.20
2019-02-25T01:28:42.034Z,6.00
2019-02-25T01:29:42.025Z,6.10
2019-02-25T01:30:42.016Z,6.00
2019-02-25T01:31:42.034Z,5.70
2019-02-25T01:32:41.993Z,5.80
2019-02-25T01:33:41.981Z,5.80
2019-02-25T01:34:41.962Z,6.20
2019-02-25T01:35:41.973Z,5.90
2019-02-25T01:36:41.968Z,5.60
2019-02-25T01:37:41.943Z,5.80
2019-02-25T01:38:41.936Z,6.20
2019-02-25T01:39:41.909Z,6.40
2019-02-25T01:40:41.923Z,6.10
2019-02-25T01:41:41.888Z,5.70
2019-02-25T01:42:41.886Z,6.00
2019-02-25T01:43:41.870Z,5.60
2019-02-25T01:44:41.870Z,5.50
2019-02-25T01:45:41.869Z,5.80
2019-02-25T01:46:41.864Z,6.00
2019-02-25T01:47:41.835Z,6.60
2019-02-25T01:48:41.812Z,5.60
2019-02-25T01:49:41.800Z,5.70
2019-02-25T01:50:41.794Z,5.80
2019-02-25T01:51:41.795Z,6.00
2019-02-25T01:52:41.768Z,6.10
2019-02-25T01:53:41.761Z,5.80
2019-02-25T01:54:41.747Z,5.70
2019-02-25T01:55:41.754Z,6.40
2019-02-25T01:56:41.723Z,6.20
2019-02-25T01:57:41.709Z,5.70
2019-02-25T01:58:41.703Z,5.80
2019-02-25T01:59:41.692Z,5.40
2019-02-25T02:00:41.712Z,6.50
2019-02-25T02:01:41.681Z,6.40
2019-02-25T02:02:41.658Z,5.80
2019-02-25T02:03:41.648Z,5.80
2019-02-25T02:04:41.642Z,6.40
2019-02-25T02:05:41.627Z,5.70
2019-02-25T02:06:41.617Z,5.90
2019-02-25T02:07:41.598Z,6.90
2019-02-25T02:08:41.598Z,6.40
2019-02-25T02:09:41.579Z,5.70
2019-02-25T02:10:41.568Z,6.00
2019-02-25T02:11:41.553Z,5.70
2019-02-25T02:12:41.545Z,6.00
2019-02-25T02:13:41.537Z,5.90
2019-02-25T02:14:41.534Z,6.10
2019-02-25T02:15:41.514Z,6.60
2019-02-25T02:16:41.498Z,6.20
2019-02-25T02:17:41.496Z,6.20
2019-02-25T02:18:41.479Z,7.10
2019-02-25T02:19:41.461Z,6.20
2019-02-25T02:20:41.454Z,6.30
2019-02-25T02:21:41.446Z,6.10
2019-02-25T02:22:41.424Z,6.40
2019-02-25T02:23:41.422Z,5.90
2019-02-25T02:24:41.417Z,6.40
2019-02-25T02:25:41.398Z,6.70
2019-02-25T02:26:41.389Z,5.80
2019-02-25T02:27:41.378Z,6.40
2019-02-25T02:28:41.372Z,6.30
2019-02-25T02:29:41.363Z,6.70
2019-02-25T02:30:41.339Z,6.30
2019-02-25T02:31:41.328Z,6.10
2019-02-25T02:32:41.318Z,6.50
2019-02-25T02:33:41.328Z,6.50
2019-02-25T02:34:41.296Z,6.70
2019-02-25T02:35:41.286Z,5.80
2019-02-25T02:36:41.307Z,6.40
2019-02-25T02:37:41.264Z,6.10
2019-02-25T02:38:41.252Z,6.70
2019-02-25T02:39:41.237Z,6.20
2019-02-25T02:40:41.235Z,6.00
2019-02-25T02:41:41.219Z,6.10
2019-02-25T02:42:41.206Z,6.30
2019-02-25T02:43:41.196Z,5.90
2019-02-25T02:44:41.186Z,5.60
2019-02-25T02:45:41.179Z,6.40
2019-02-25T02:46:41.163Z,6.30
2019-02-25T02:47:41.167Z,6.40
2019-02-25T02:48:41.142Z,6.30
2019-02-25T02:49:41.132Z,6.10
2019-02-25T02:50:41.116Z,6.40
2019-02-25T02:51:41.102Z,6.60
2019-02-25T02:52:41.097Z,6.00
2019-02-25T02:53:41.089Z,6.50
2019-02-25T02:54:41.069Z,5.70
2019-02-25T02:55:41.063Z,6.20
2019-02-25T02:56:41.055Z,6.90
2019-02-25T02:57:41.048Z,6.70
2019-02-25T02:58:41.028Z,6.60
2019-02-25T02:59:41.010Z,6.30
2019-02-25T03:00:41.001Z,6.30
2019-02-25T03:01:40.995Z,6.30
2019-02-25T03:02:40.972Z,6.30
2019-02-25T03:03:40.979Z,6.30
2019-02-25T03:04:40.959Z,7.20
2019-02-25T03:05:40.955Z,5.60
2019-02-25T03:06:40.932Z,6.00
2019-02-25T03:07:40.927Z,6.70
2019-02-25T03:08:40.917Z,6.30
2019-02-25T03:09:40.907Z,5.40
2019-02-25T03:10:40.890Z,6.30
2019-02-25T03:11:40.882Z,6.10
2019-02-25T03:12:40.865Z,6.10
2019-02-25T03:13:40.854Z,6.40
2019-02-25T03:14:40.849Z,6.80
2019-02-25T03:15:40.839Z,6.20
2019-02-25T03:16:40.831Z,6.80
2019-02-25T03:17:40.817Z,6.80
2019-02-25T03:18:40.808Z,6.60
2019-02-25T03:19:40.791Z,5.90
2019-02-25T03:20:40.784Z,6.70
2019-02-25T03:21:40.779Z,6.10
2019-02-25T03:22:40.755Z,6.50
2019-02-25T03:23:40.745Z,6.60
2019-02-25T03:24:40.753Z,6.00
2019-02-25T03:25:40.734Z,6.50
2019-02-25T03:26:40.702Z,6.80
2019-02-25T03:27:40.702Z,6.20
2019-02-25T03:28:40.685Z,6.80
2019-02-25T03:29:40.679Z,6.10
2019-02-25T03:30:40.667Z,6.70
2019-02-25T03:31:40.653Z,6.40
2019-02-25T03:32:40.649Z,5.90
2019-02-25T03:33:40.623Z,6.30
2019-02-25T03:34:40.634Z,6.00
2019-02-25T03:35:40.611Z,7.40
2019-02-25T03:36:40.597Z,6.50
2019-02-25T03:37:40.603Z,6.80
2019-02-25T03:38:40.567Z,6.00
2019-02-25T03:39:40.577Z,6.40
2019-02-25T03:40:40.576Z,6.90
2019-02-25T03:41:40.544Z,6.80
2019-02-25T03:42:40.527Z,6.20
2019-02-25T03:43:40.512Z,6.00
2019-02-25T03:44:40.517Z,6.90
2019-02-25T03:45:40.490Z,6.00
2019-02-25T03:46:40.496Z,6.00
2019-02-25T03:47:40.472Z,5.90
2019-02-25T03:48:40.457Z,5.90
2019-02-25T03:49:40.448Z,8.20
2019-02-25T03:50:40.436Z,7.70
2019-02-25T03:51:40.421Z,10.30
2019-02-25T03:52:40.411Z,11.00
2019-02-25T03:53:40.408Z,13.60
2019-02-25T03:54:40.394Z,11.10
2019-02-25T03:55:40.376Z,11.10
2019-02-25T03:56:40.366Z,11.10
2019-02-25T03:57:40.352Z,9.40
2019-02-25T03:58:40.338Z,13.90
2019-02-25T03:59:40.342Z,14.40
2019-02-25T04:00:40.322Z,11.10
2019-02-25T04:01:40.310Z,8.00
2019-02-25T04:02:40.296Z,6.90
2019-02-25T04:03:40.292Z,6.60
2019-02-25T04:04:40.273Z,6.50
2019-02-25T04:05:40.265Z,6.20
2019-02-25T04:06:40.261Z,5.70
2019-02-25T04:07:40.241Z,6.40
2019-02-25T04:08:40.225Z,6.80
2019-02-25T04:09:40.215Z,6.20
2019-02-25T04:10:40.205Z,6.50
2019-02-25T04:11:40.196Z,6.00
2019-02-25T04:12:40.197Z,5.80
2019-02-25T04:13:40.167Z,6.70
2019-02-25T04:14:40.165Z,6.50
2019-02-25T04:15:40.143Z,6.00
2019-02-25T04:16:40.131Z,6.30
2019-02-25T04:17:40.134Z,6.30
2019-02-25T04:18:40.116Z,6.70
2019-02-25T04:19:40.102Z,6.60
2019-02-25T04:20:40.092Z,6.10
2019-02-25T04:21:40.077Z,6.50
2019-02-25T04:22:40.071Z,7.00
2019-02-25T04:23:40.049Z,6.80
2019-02-25T04:24:40.047Z,6.10
2019-02-25T04:25:40.033Z,6.00
2019-02-25T04:26:40.022Z,6.40
2019-02-25T04:27:40.008Z,6.50
2019-02-25T04:28:39.989Z,6.30
2019-02-25T04:29:39.992Z,8.00
2019-02-25T04:30:39.975Z,7.90
2019-02-25T04:31:39.966Z,7.60
2019-02-25T04:32:39.948Z,6.10
2019-02-25T04:33:39.941Z,6.60
2019-02-25T04:34:39.929Z,6.90
2019-02-25T04:35:39.919Z,6.60
2019-02-25T04:36:39.911Z,6.20
2019-02-25T04:37:39.895Z,6.30
2019-02-25T04:38:39.890Z,6.50
2019-02-25T04:39:39.881Z,6.30
2019-02-25T04:40:39.862Z,6.10
2019-02-25T04:41:39.846Z,6.30
2019-02-25T04:42:39.836Z,6.20
2019-02-25T04:43:39.826Z,6.20
2019-02-25T04:44:39.822Z,6.30
2019-02-25T04:45:39.805Z,6.00
2019-02-25T04:46:39.803Z,6.60
2019-02-25T04:47:39.784Z,5.80
2019-02-25T04:48:39.766Z,6.60
2019-02-25T04:49:39.761Z,6.20
2019-02-25T04:50:39.741Z,6.50
2019-02-25T04:51:39.727Z,6.30
2019-02-25T04:52:39.727Z,6.30
2019-02-25T04:53:39.727Z,6.20
2019-02-25T04:54:39.697Z,7.00
2019-02-25T04:55:39.696Z,6.80
2019-02-25T04:56:39.673Z,5.70
2019-02-25T04:57:39.665Z,7.00
2019-02-25T04:58:39.652Z,6.20
2019-02-25T04:59:39.629Z,6.50
2019-02-25T05:00:39.620Z,6.80
2019-02-25T05:01:39.614Z,6.40
2019-02-25T05:02:39.605Z,6.20
2019-02-25T05:03:39.594Z,5.90
2019-02-25T05:04:39.581Z,6.70
2019-02-25T05:05:39.570Z,5.50
2019-02-25T05:06:39.576Z,6.30
2019-02-25T05:07:39.553Z,6.80
2019-02-25T05:08:39.544Z,6.60
2019-02-25T05:09:39.520Z,6.20
2019-02-25T05:10:39.509Z,6.00
2019-02-25T05:11:39.506Z,6.30
2019-02-25T05:12:39.492Z,6.10
2019-02-25T05:13:39.485Z,6.30
2019-02-25T05:14:39.457Z,6.70
2019-02-25T05:15:39.453Z,6.60
2019-02-25T05:16:40.098Z,6.20
2019-02-25T05:17:39.435Z,6.00
2019-02-25T05:18:39.418Z,6.80
2019-02-25T05:19:39.406Z,6.50
2019-02-25T05:20:39.400Z,6.40
2019-02-25T05:21:39.375Z,6.20
2019-02-25T05:22:39.365Z,6.10
2019-02-25T05:23:39.363Z,6.20
2019-02-25T05:24:39.373Z,6.10
2019-02-25T05:25:39.334Z,6.80
2019-02-25T05:26:39.327Z,6.10
2019-02-25T05:27:39.311Z,6.30
2019-02-25T05:28:39.295Z,6.20
2019-02-25T05:29:39.289Z,6.50
2019-02-25T05:30:39.326Z,7.00
2019-02-25T05:31:39.267Z,6.40
2019-02-25T05:32:39.253Z,6.40
2019-02-25T05:33:39.243Z,6.10
2019-02-25T05:34:39.228Z,6.30
2019-02-25T05:35:39.227Z,6.50
2019-02-25T05:36:39.211Z,5.60
2019-02-25T05:37:39.194Z,6.60
2019-02-25T05:38:39.180Z,6.40
2019-02-25T05:39:39.167Z,6.50
2019-02-25T05:40:39.164Z,6.50
2019-02-25T05:41:39.167Z,6.80
2019-02-25T05:42:39.135Z,6.30
2019-02-25T05:43:39.132Z,6.50
2019-02-25T05:44:39.119Z,6.50
2019-02-25T05:45:39.105Z,6.60
2019-02-25T05:46:39.097Z,6.50
2019-02-25T05:47:39.080Z,6.70
2019-02-25T05:48:39.066Z,6.10
2019-02-25T05:49:39.048Z,6.80
2019-02-25T05:50:39.904Z,6.20
2019-02-25T05:51:39.028Z,7.60
2019-02-25T05:52:39.021Z,6.30
2019-02-25T05:53:39.005Z,6.10
2019-02-25T05:54:38.992Z,6.50
2019-02-25T05:55:38.988Z,7.30
2019-02-25T05:56:38.974Z,6.90
2019-02-25T05:57:38.964Z,6.80
2019-02-25T05:58:38.961Z,6.70
2019-02-25T05:59:38.929Z,6.60
2019-02-25T06:00:38.917Z,8.40
2019-02-25T06:01:38.947Z,6.70
2019-02-25T06:02:38.897Z,6.70
2019-02-25T06:03:38.880Z,6.60
2019-02-25T06:04:38.883Z,6.90
2019-02-25T06:05:38.868Z,7.00
2019-02-25T06:06:38.853Z,7.00
2019-02-25T06:07:38.845Z,6.30
2019-02-25T06:08:38.844Z,6.20
2019-02-25T06:09:38.827Z,6.70
2019-02-25T06:10:38.808Z,7.00
2019-02-25T06:11:38.793Z,6.80
2019-02-25T06:12:38.809Z,6.90
2019-02-25T06:13:38.763Z,6.90
2019-02-25T06:14:38.754Z,7.10
2019-02-25T06:15:38.782Z,6.90
2019-02-25T06:16:38.787Z,6.60
2019-02-25T06:17:38.723Z,7.10
2019-02-25T06:18:38.709Z,6.80
2019-02-25T06:19:38.716Z,6.80
2019-02-25T06:20:38.689Z,6.80
2019-02-25T06:21:38.681Z,6.90
2019-02-25T06:22:38.676Z,6.80
2019-02-25T06:23:38.668Z,7.30
2019-02-25T06:24:38.652Z,7.20
2019-02-25T06:25:38.648Z,7.70
2019-02-25T06:26:38.811Z,6.80
2019-02-25T06:27:38.617Z,7.40
2019-02-25T06:28:38.597Z,6.70
2019-02-25T06:29:38.589Z,7.20
2019-02-25T06:30:38.572Z,7.00
2019-02-25T06:31:38.559Z,7.40
2019-02-25T06:32:38.563Z,7.10
2019-02-25T06:33:38.540Z,7.30
2019-02-25T06:34:38.522Z,7.60
2019-02-25T06:35:38.523Z,6.10
2019-02-25T06:36:38.498Z,7.10
2019-02-25T06:37:38.488Z,6.80
2019-02-25T06:38:38.488Z,7.00
2019-02-25T06:39:38.463Z,7.00
2019-02-25T06:40:38.472Z,7.60
2019-02-25T06:41:38.449Z,6.90
2019-02-25T06:42:38.432Z,7.10
2019-02-25T06:43:38.418Z,7.10
2019-02-25T06:44:38.418Z,7.10
2019-02-25T06:45:38.415Z,7.20
2019-02-25T06:46:38.392Z,7.10
2019-02-25T06:47:38.373Z,6.50
2019-02-25T06:48:38.370Z,7.10
2019-02-25T06:49:38.409Z,7.90
2019-02-25T06:50:38.339Z,7.50
2019-02-25T06:51:38.323Z,7.00
2019-02-25T06:52:38.345Z,7.40
2019-02-25T06:53:38.308Z,7.50
2019-02-25T06:54:38.287Z,7.50
2019-02-25T06:55:38.336Z,7.60
2019-02-25T06:56:38.262Z,7.60
2019-02-25T06:57:38.248Z,7.40
2019-02-25T06:58:38.243Z,7.70
2019-02-25T06:59:38.238Z,7.20
2019-02-25T07:00:38.230Z,7.60
2019-02-25T07:01:38.466Z,7.20
2019-02-25T07:02:38.492Z,6.90
2019-02-25T07:03:38.178Z,6.90
2019-02-25T07:04:38.174Z,7.10
2019-02-25T07:05:38.175Z,7.30
2019-02-25T07:06:38.159Z,7.00
2019-02-25T07:07:38.138Z,7.10
2019-02-25T07:08:38.125Z,6.90
2019-02-25T07:09:38.974Z,7.10
2019-02-25T07:10:38.109Z,7.80
2019-02-25T07:11:38.089Z,7.20
2019-02-25T07:12:38.076Z,7.40
2019-02-25T07:13:38.071Z,7.40
2019-02-25T07:14:38.058Z,7.80
2019-02-25T07:15:38.045Z,7.10
2019-02-25T07:16:38.056Z,7.50
2019-02-25T07:17:38.030Z,7.00
2019-02-25T07:18:38.027Z,6.70
2019-02-25T07:19:38.001Z,7.60
2019-02-25T07:20:37.989Z,6.50
2019-02-25T07:21:37.990Z,6.70
2019-02-25T07:22:37.972Z,6.70
2019-02-25T07:23:37.958Z,7.30
2019-02-25T07:24:37.961Z,6.90
2019-02-25T07:25:37.940Z,7.40
2019-02-25T07:26:37.921Z,7.10
2019-02-25T07:27:37.909Z,7.00
2019-02-25T07:28:37.892Z,7.00
2019-02-25T07:29:37.895Z,7.70
2019-02-25T07:30:37.872Z,7.30
2019-02-25T07:31:37.863Z,6.90
2019-02-25T07:32:39.443Z,7.10
2019-02-25T07:33:37.846Z,6.70
2019-02-25T07:34:37.823Z,7.00
2019-02-25T07:35:37.812Z,7.00
2019-02-25T07:36:37.805Z,7.00
2019-02-25T07:37:37.795Z,6.70
2019-02-25T07:38:39.773Z,7.80
2019-02-25T07:39:37.767Z,7.70
2019-02-25T07:40:37.754Z,7.00
2019-02-25T07:41:38.285Z,7.40
2019-02-25T07:42:37.728Z,7.10
2019-02-25T07:43:37.728Z,7.50
2019-02-25T07:44:37.719Z,7.60
2019-02-25T07:45:37.706Z,7.60
2019-02-25T07:46:37.694Z,7.60
2019-02-25T07:47:37.683Z,7.30
2019-02-25T07:48:37.673Z,7.20
2019-02-25T07:49:37.663Z,7.60
2019-02-25T07:50:46.775Z,8.00
2019-02-25T07:51:37.646Z,7.00
2019-02-25T07:52:37.631Z,7.40
2019-02-25T07:53:37.615Z,7.70
2019-02-25T07:54:37.606Z,7.10
2019-02-25T07:55:37.608Z,7.20
2019-02-25T07:56:37.588Z,7.30
2019-02-25T07:57:37.583Z,8.00
2019-02-25T07:58:37.575Z,7.30
2019-02-25T07:59:37.556Z,7.90
2019-02-25T08:00:37.542Z,7.50
2019-02-25T08:01:37.528Z,7.20
2019-02-25T08:02:37.516Z,7.60
2019-02-25T08:03:37.515Z,7.60
2019-02-25T08:04:37.503Z,8.00
2019-02-25T08:05:37.495Z,7.30
2019-02-25T08:06:37.499Z,7.60
2019-02-25T08:07:37.490Z,7.00
2019-02-25T08:08:37.467Z,7.70
2019-02-25T08:09:37.449Z,7.40
2019-02-25T08:10:37.443Z,7.20
2019-02-25T08:11:37.424Z,6.90
2019-02-25T08:12:37.412Z,7.80
2019-02-25T08:13:37.411Z,7.10
2019-02-25T08:14:37.398Z,7.40
2019-02-25T08:15:37.398Z,7.80
2019-02-25T08:16:37.383Z,8.50
2019-02-25T08:17:37.373Z,7.30
2019-02-25T08:18:37.362Z,7.50
2019-02-25T08:19:37.364Z,7.40
2019-02-25T08:20:37.339Z,7.50
2019-02-25T08:21:37.324Z,6.60
2019-02-25T08:22:37.321Z,8.10
2019-02-25T08:23:37.311Z,6.70
2019-02-25T08:24:37.303Z,7.00
2019-02-25T08:25:37.296Z,6.60
2019-02-25T08:26:37.279Z,6.40
2019-02-25T08:27:37.273Z,6.50
2019-02-25T08:28:37.268Z,6.90
2019-02-25T08:29:37.253Z,6.90
2019-02-25T08:30:37.245Z,6.60
2019-02-25T08:31:37.240Z,6.70
2019-02-25T08:32:37.221Z,6.60
2019-02-25T08:33:37.219Z,6.50
2019-02-25T08:34:37.210Z,6.60
2019-02-25T08:35:37.196Z,6.40
2019-02-25T08:36:37.635Z,6.80
2019-02-25T08:37:37.192Z,6.40
2019-02-25T08:38:37.165Z,6.90
2019-02-25T08:39:37.161Z,7.90
2019-02-25T08:40:37.165Z,7.50
2019-02-25T08:41:37.136Z,7.20
2019-02-25T08:42:37.135Z,6.70
2019-02-25T08:43:37.109Z,7.00
2019-02-25T08:44:37.108Z,7.00
2019-02-25T08:45:37.125Z,6.80
2019-02-25T08:46:37.089Z,7.00
2019-02-25T08:47:37.078Z,7.10
2019-02-25T08:48:37.071Z,6.90
2019-02-25T08:49:37.061Z,6.80
2019-02-25T08:50:37.051Z,6.70
2019-02-25T08:51:37.039Z,7.00
2019-02-25T08:52:37.030Z,6.70
2019-02-25T08:53:37.024Z,6.30
2019-02-25T08:54:37.008Z,8.30
2019-02-25T08:55:37.006Z,7.20
2019-02-25T08:56:37.000Z,7.10
2019-02-25T08:57:36.984Z,6.70
2019-02-25T08:58:37.021Z,7.70
2019-02-25T08:59:36.961Z,7.10
2019-02-25T09:00:36.958Z,6.20
2019-02-25T09:01:36.965Z,7.10
2019-02-25T09:02:36.936Z,6.60
2019-02-25T09:03:36.924Z,6.70
2019-02-25T09:04:36.916Z,6.60
2019-02-25T09:05:36.911Z,6.50
2019-02-25T09:06:36.904Z,7.50
2019-02-25T09:07:36.892Z,6.50
2019-02-25T09:08:36.884Z,7.30
2019-02-25T09:09:36.875Z,6.20
2019-02-25T09:10:36.864Z,6.30
2019-02-25T09:11:36.849Z,6.30
2019-02-25T09:12:36.846Z,6.40
2019-02-25T09:13:36.840Z,5.90
2019-02-25T09:14:36.827Z,5.90
2019-02-25T09:15:36.817Z,5.90
2019-02-25T09:16:36.807Z,6.40
2019-02-25T09:17:36.795Z,6.30
2019-02-25T09:18:36.805Z,6.00
2019-02-25T09:19:36.781Z,5.80
2019-02-25T09:20:36.774Z,6.00
2019-02-25T09:21:36.764Z,6.10
2019-02-25T09:22:36.756Z,5.50
2019-02-25T09:23:36.755Z,6.00
2019-02-25T09:24:36.736Z,6.10
2019-02-25T09:25:36.720Z,5.90
2019-02-25T09:26:36.718Z,6.20
2019-02-25T09:27:36.708Z,5.70
2019-02-25T09:28:36.697Z,6.60
2019-02-25T09:29:36.690Z,6.50
2019-02-25T09:30:36.685Z,5.80
2019-02-25T09:31:36.682Z,6.00
2019-02-25T09:32:36.667Z,5.50
2019-02-25T09:33:36.660Z,5.30
2019-02-25T09:34:36.642Z,6.30
2019-02-25T09:35:36.640Z,5.40
2019-02-25T09:36:36.632Z,5.30
2019-02-25T09:37:37.324Z,5.60
2019-02-25T09:38:36.628Z,6.00
2019-02-25T09:39:36.604Z,5.80
2019-02-25T09:40:36.597Z,5.70
2019-02-25T09:41:36.591Z,5.50
2019-02-25T09:42:36.596Z,5.60
2019-02-25T09:43:36.574Z,6.00
2019-02-25T09:44:38.031Z,5.60
2019-02-25T09:45:36.555Z,5.80
2019-02-25T09:46:36.551Z,6.50
2019-02-25T09:47:36.545Z,6.00
2019-02-25T09:48:36.528Z,6.10
2019-02-25T09:49:36.523Z,5.70
2019-02-25T09:50:36.529Z,6.50
2019-02-25T09:51:36.506Z,5.30
2019-02-25T09:52:36.521Z,5.50
2019-02-25T09:53:36.490Z,5.30
2019-02-25T09:54:36.482Z,5.60
2019-02-25T09:55:36.470Z,6.10
2019-02-25T09:56:37.372Z,6.00
2019-02-25T09:57:36.452Z,5.80
2019-02-25T09:58:36.439Z,5.60
2019-02-25T09:59:36.450Z,5.80
2019-02-25T10:00:36.435Z,5.60
2019-02-25T10:01:36.426Z,4.80
2019-02-25T10:02:36.405Z,5.80
2019-02-25T10:03:36.417Z,5.80
2019-02-25T10:04:36.397Z,6.40
2019-02-25T10:05:36.394Z,7.00
2019-02-25T10:06:36.378Z,7.20
2019-02-25T10:07:36.370Z,6.10
2019-02-25T10:08:36.379Z,6.00
2019-02-25T10:09:36.352Z,6.20
2019-02-25T10:10:36.341Z,5.80
2019-02-25T10:11:36.370Z,5.30
2019-02-25T10:12:36.343Z,6.00
2019-02-25T10:13:36.332Z,5.70
2019-02-25T10:14:36.319Z,5.90
2019-02-25T10:15:36.320Z,5.40
2019-02-25T10:16:36.317Z,6.00
2019-02-25T10:17:36.306Z,5.40
2019-02-25T10:18:36.288Z,5.60
2019-02-25T10:19:36.274Z,6.30
2019-02-25T10:20:36.287Z,5.30
2019-02-25T10:21:36.273Z,5.60
2019-02-25T10:22:36.253Z,5.50
2019-02-25T10:23:36.246Z,5.00
2019-02-25T10:24:36.243Z,5.30
2019-02-25T10:25:36.231Z,4.80
2019-02-25T10:26:36.234Z,4.90
2019-02-25T10:27:36.233Z,5.40
2019-02-25T10:28:36.218Z,5.60
2019-02-25T10:29:36.211Z,5.60
2019-02-25T10:30:36.195Z,5.40
2019-02-25T10:31:38.096Z,4.80
2019-02-25T10:32:36.177Z,4.70
2019-02-25T10:33:36.172Z,5.00
2019-02-25T10:34:36.177Z,5.40
2019-02-25T10:35:36.157Z,5.30
2019-02-25T10:36:36.153Z,4.60
2019-02-25T10:37:36.909Z,4.50
2019-02-25T10:38:37.582Z,5.20
2019-02-25T10:39:36.130Z,4.60
2019-02-25T10:40:36.138Z,5.00
2019-02-25T10:41:36.116Z,4.50
2019-02-25T10:42:37.698Z,4.30
2019-02-25T10:43:36.580Z,4.30
2019-02-25T10:44:36.524Z,4.90
2019-02-25T10:45:37.201Z,4.80
2019-02-25T10:46:36.077Z,4.20
2019-02-25T10:47:36.073Z,4.50
2019-02-25T10:48:36.072Z,4.30
2019-02-25T10:49:36.060Z,4.60
2019-02-25T10:50:38.418Z,4.10
2019-02-25T10:51:36.930Z,4.40
2019-02-25T10:52:36.039Z,4.80
2019-02-25T10:53:36.029Z,4.10
2019-02-25T10:54:36.031Z,3.90
2019-02-25T10:55:36.018Z,4.40
2019-02-25T10:56:36.015Z,4.60
2019-02-25T10:57:36.001Z,4.10
2019-02-25T10:58:36.125Z,4.60
2019-02-25T10:59:36.827Z,4.30
2019-02-25T11:00:37.808Z,4.40
2019-02-25T11:01:37.516Z,4.50
2019-02-25T11:02:44.026Z,4.90
2019-02-25T11:03:35.959Z,4.80
2019-02-25T11:04:35.950Z,4.20
2019-02-25T11:05:35.947Z,4.30
2019-02-25T11:06:37.579Z,4.60
2019-02-25T11:07:37.314Z,4.10
2019-02-25T11:08:37.370Z,4.80
2019-02-25T11:09:35.913Z,4.20
2019-02-25T11:10:35.910Z,4.00
2019-02-25T11:11:35.906Z,4.70
2019-02-25T11:12:35.903Z,5.20
2019-02-25T11:13:36.700Z,4.70
2019-02-25T11:14:38.323Z,4.90
2019-02-25T11:15:37.448Z,4.80
2019-02-25T11:16:35.873Z,4.20
2019-02-25T11:17:35.861Z,4.50
2019-02-25T11:18:35.860Z,4.70
2019-02-25T11:19:35.855Z,4.40
2019-02-25T11:20:37.658Z,4.70
2019-02-25T11:21:37.520Z,4.20
2019-02-25T11:22:37.620Z,5.00
2019-02-25T11:23:35.832Z,4.80
2019-02-25T11:24:35.847Z,4.30
2019-02-25T11:25:35.819Z,4.30
2019-02-25T11:26:35.814Z,4.50
2019-02-25T11:27:37.403Z,4.90
2019-02-25T11:28:38.435Z,4.80
2019-02-25T11:29:37.854Z,4.70
2019-02-25T11:30:35.781Z,4.80
2019-02-25T11:31:35.780Z,4.70
2019-02-25T11:32:35.766Z,4.90
2019-02-25T11:33:35.774Z,5.00
2019-02-25T11:34:37.576Z,4.90
2019-02-25T11:35:36.711Z,4.80
2019-02-25T11:36:35.747Z,4.90
2019-02-25T11:37:35.745Z,4.90
2019-02-25T11:38:37.436Z,4.40
2019-02-25T11:39:37.245Z,5.20
2019-02-25T11:40:36.545Z,4.10
2019-02-25T11:41:37.107Z,4.30
2019-02-25T11:42:35.708Z,4.80
2019-02-25T11:43:35.708Z,4.80
2019-02-25T11:44:35.700Z,4.30
2019-02-25T11:45:36.451Z,4.70
2019-02-25T11:46:35.687Z,4.50
2019-02-25T11:47:35.695Z,3.90
2019-02-25T11:48:35.676Z,4.60
2019-02-25T11:49:35.667Z,4.30
2019-02-25T11:50:35.660Z,4.60
2019-02-25T11:51:35.670Z,4.20
2019-02-25T11:52:35.667Z,4.70
2019-02-25T11:53:35.645Z,3.90
2019-02-25T11:54:35.636Z,3.90
2019-02-25T11:55:35.633Z,4.30
2019-02-25T11:56:35.633Z,3.90
2019-02-25T11:57:35.626Z,4.40
2019-02-25T11:58:35.617Z,4.50
2019-02-25T11:59:35.614Z,4.20
2019-02-25T12:00:35.605Z,4.30
2019-02-25T12:01:35.599Z,4.00
2019-02-25T12:02:35.597Z,4.40
2019-02-25T12:03:35.593Z,4.20
2019-02-25T12:04:35.582Z,4.40
2019-02-25T12:05:35.581Z,4.20
2019-02-25T12:06:35.573Z,4.20
2019-02-25T12:07:35.563Z,4.60
2019-02-25T12:08:35.603Z,4.20
2019-02-25T12:09:35.555Z,4.50
2019-02-25T12:10:35.546Z,3.70
2019-02-25T12:11:35.544Z,3.50
2019-02-25T12:12:35.550Z,3.70
2019-02-25T12:13:35.543Z,4.00
2019-02-25T12:14:35.552Z,4.00
2019-02-25T12:15:35.540Z,3.70
2019-02-25T12:16:35.515Z,3.40
2019-02-25T12:17:35.518Z,4.10
2019-02-25T12:18:35.510Z,3.30
2019-02-25T12:19:35.508Z,4.00
2019-02-25T12:20:35.507Z,3.60
2019-02-25T12:21:35.485Z,3.80
2019-02-25T12:22:35.494Z,3.80
2019-02-25T12:23:35.488Z,3.10
2019-02-25T12:24:35.473Z,3.80
2019-02-25T12:25:35.470Z,3.80
2019-02-25T12:26:35.473Z,4.30
2019-02-25T12:27:35.454Z,4.00
2019-02-25T12:28:35.459Z,3.90
2019-02-25T12:29:35.506Z,4.20
2019-02-25T12:30:35.460Z,4.00
2019-02-25T12:31:35.424Z,3.80
2019-02-25T12:32:35.432Z,3.70
2019-02-25T12:33:35.440Z,4.40
2019-02-25T12:34:35.420Z,4.10
2019-02-25T12:35:35.430Z,3.70
2019-02-25T12:36:35.404Z,3.80
2019-02-25T12:37:35.404Z,4.10
2019-02-25T12:38:35.400Z,3.80
2019-02-25T12:39:35.390Z,3.70
2019-02-25T12:40:35.384Z,4.00
2019-02-25T12:41:35.393Z,3.90
2019-02-25T12:42:35.378Z,4.20
2019-02-25T12:43:35.389Z,3.50
2019-02-25T12:44:35.381Z,4.20
2019-02-25T12:45:35.373Z,4.00
2019-02-25T12:46:35.349Z,3.80
2019-02-25T12:47:35.354Z,3.30
2019-02-25T12:48:35.346Z,3.70
2019-02-25T12:49:35.351Z,3.60
2019-02-25T12:50:35.332Z,3.20
2019-02-25T12:51:35.338Z,3.70
2019-02-25T12:52:35.320Z,3.70
2019-02-25T12:53:35.327Z,3.30
2019-02-25T12:54:35.315Z,3.60
2019-02-25T12:55:35.310Z,3.40
2019-02-25T12:56:35.304Z,3.60
2019-02-25T12:57:35.298Z,5.50
2019-02-25T12:58:35.291Z,3.70
2019-02-25T12:59:35.305Z,3.80
2019-02-25T13:00:35.293Z,3.80
2019-02-25T13:01:35.289Z,3.90
2019-02-25T13:02:35.275Z,3.80
2019-02-25T13:03:35.270Z,3.90
2019-02-25T13:04:35.261Z,4.30
2019-02-25T13:05:35.260Z,4.40
2019-02-25T13:06:35.255Z,4.30
2019-02-25T13:07:35.260Z,4.00
2019-02-25T13:08:35.249Z,4.00
2019-02-25T13:09:35.243Z,4.20
2019-02-25T13:10:35.235Z,3.90
2019-02-25T13:11:35.221Z,4.40
2019-02-25T13:12:35.228Z,4.80
2019-02-25T13:13:35.230Z,9.30
2019-02-25T13:14:35.222Z,6.00
2019-02-25T13:15:35.202Z,7.70
2019-02-25T13:16:35.206Z,6.90
2019-02-25T13:17:35.198Z,6.20
2019-02-25T13:18:35.195Z,4.80